createdAt,value
2022-12-14T00:01:27.174Z,33.63
2022-12-14T00:03:55.576Z,35.10
2022-12-14T00:06:26.299Z,35.07
2022-12-14T00:08:55.673Z,37.20
2022-12-14T00:11:23.492Z,32.00
2022-12-14T00:13:52.654Z,38.97
2022-12-14T00:16:21.053Z,35.43
2022-12-14T00:18:52.305Z,35.97
2022-12-14T00:21:20.562Z,33.10
2022-12-14T00:23:51.223Z,35.73
2022-12-14T00:26:20.960Z,36.73
2022-12-14T00:28:50.031Z,35.07
2022-12-14T00:31:17.754Z,36.30
2022-12-14T00:33:45.638Z,37.40
2022-12-14T00:36:14.963Z,32.17
2022-12-14T00:38:42.848Z,35.30
2022-12-14T00:41:12.331Z,31.33
2022-12-14T00:43:40.119Z,40.07
2022-12-14T00:46:07.845Z,31.77
2022-12-14T00:48:35.547Z,33.93
2022-12-14T00:51:03.414Z,34.50
2022-12-14T00:53:31.054Z,35.87
2022-12-14T00:55:58.524Z,41.30
2022-12-14T00:58:27.843Z,34.10
2022-12-14T01:01:02.620Z,32.50
2022-12-14T01:03:30.721Z,34.67
2022-12-14T01:05:59.159Z,31.37
2022-12-14T01:08:26.922Z,31.57
2022-12-14T01:10:54.401Z,33.50
2022-12-14T01:13:21.898Z,27.83
2022-12-14T01:15:50.753Z,37.23
2022-12-14T01:18:18.844Z,32.20
2022-12-14T01:20:46.282Z,35.20
2022-12-14T01:23:13.704Z,36.00
2022-12-14T01:25:41.156Z,34.37
2022-12-14T01:28:08.600Z,35.77
2022-12-14T01:30:36.093Z,34.00
2022-12-14T01:33:04.950Z,43.73
2022-12-14T01:35:34.525Z,29.53
2022-12-14T01:38:02.048Z,39.00
2022-12-14T01:40:29.509Z,36.83
2022-12-14T01:42:56.967Z,32.40
2022-12-14T01:45:24.687Z,31.83
2022-12-14T01:47:54.403Z,37.23
2022-12-14T01:50:27.652Z,35.60
2022-12-14T01:52:58.053Z,32.60
2022-12-14T01:55:27.949Z,39.40
2022-12-14T01:57:59.259Z,33.50
2022-12-14T02:00:26.718Z,35.97
2022-12-14T02:02:57.808Z,29.93
2022-12-14T02:05:28.662Z,34.73
2022-12-14T02:07:56.594Z,33.77
2022-12-14T02:10:26.352Z,31.67
2022-12-14T02:12:58.355Z,29.03
2022-12-14T02:15:26.065Z,35.77
2022-12-14T02:17:53.773Z,30.93
2022-12-14T02:20:22.098Z,32.73
2022-12-14T02:23:30.794Z,41.07
2022-12-14T02:26:48.732Z,33.67
2022-12-14T02:29:36.803Z,31.17
2022-12-14T02:32:42.172Z,34.20
2022-12-14T02:35:14.561Z,28.07
2022-12-14T02:37:47.219Z,31.93
2022-12-14T02:40:22.769Z,36.70
2022-12-14T02:42:57.822Z,32.77
2022-12-14T02:45:33.757Z,26.83
2022-12-14T02:48:02.754Z,30.83
2022-12-14T02:50:34.503Z,31.87
2022-12-14T02:53:05.263Z,29.63
2022-12-14T02:55:35.879Z,30.43
2022-12-14T02:58:05.723Z,27.97
2022-12-14T03:00:36.157Z,24.70
2022-12-14T03:03:05.610Z,28.80
2022-12-14T03:05:33.869Z,29.50
2022-12-14T03:08:03.907Z,32.57
2022-12-14T03:10:37.575Z,29.23
2022-12-14T03:13:10.470Z,28.70
2022-12-14T03:15:41.379Z,32.67
2022-12-14T03:18:09.321Z,26.63
2022-12-14T03:20:38.376Z,29.17
2022-12-14T03:23:08.711Z,26.77
2022-12-14T03:25:42.421Z,28.23
2022-12-14T03:28:13.031Z,37.20
2022-12-14T03:31:00.018Z,34.67
2022-12-14T03:33:29.298Z,29.53
2022-12-14T03:35:59.397Z,31.23
2022-12-14T03:38:32.459Z,31.33
2022-12-14T03:41:05.211Z,27.57
2022-12-14T03:43:37.145Z,33.47
2022-12-14T03:46:09.324Z,23.67
2022-12-14T03:48:40.790Z,31.20
2022-12-14T03:51:14.572Z,25.73
2022-12-14T03:53:47.703Z,29.30
2022-12-14T03:56:18.823Z,26.10
2022-12-14T03:58:57.027Z,26.73
2022-12-14T04:01:34.263Z,27.30
2022-12-14T04:04:05.067Z,20.90
2022-12-14T04:06:39.243Z,26.57
2022-12-14T04:09:17.572Z,31.33
2022-12-14T04:12:08.042Z,29.27
2022-12-14T04:14:55.075Z,25.47
2022-12-14T04:17:45.043Z,25.23
2022-12-14T04:20:16.981Z,29.10
2022-12-14T04:22:47.907Z,28.50
2022-12-14T04:25:35.471Z,31.57
2022-12-14T04:28:06.204Z,25.10
2022-12-14T04:30:34.543Z,29.77
2022-12-14T04:33:26.668Z,28.00
2022-12-14T04:35:56.601Z,27.87
2022-12-14T04:38:30.200Z,28.90
2022-12-14T04:40:59.643Z,26.50
2022-12-14T04:43:29.764Z,24.20
2022-12-14T04:46:02.044Z,29.50
2022-12-14T04:48:36.676Z,28.07
2022-12-14T04:51:07.116Z,24.37
2022-12-14T04:53:35.655Z,26.93
2022-12-14T04:56:11.051Z,20.10
2022-12-14T04:58:39.511Z,27.13
2022-12-14T05:01:23.334Z,18.77
2022-12-14T05:04:00.085Z,21.63
2022-12-14T05:06:32.794Z,19.07
2022-12-14T05:09:09.875Z,24.03
2022-12-14T05:11:57.200Z,24.77
2022-12-14T05:14:32.870Z,22.83
2022-12-14T05:17:05.008Z,25.03
2022-12-14T05:19:37.173Z,29.10
2022-12-14T05:22:07.286Z,25.87
2022-12-14T05:24:34.871Z,23.27
2022-12-14T05:27:02.348Z,20.30
2022-12-14T05:29:29.869Z,23.07
2022-12-14T05:31:57.359Z,22.23
2022-12-14T05:34:24.983Z,22.17
2022-12-14T05:36:54.414Z,20.80
2022-12-14T05:39:21.880Z,22.67
2022-12-14T05:41:49.444Z,23.47
2022-12-14T05:44:16.884Z,24.27
2022-12-14T05:46:44.866Z,22.70
2022-12-14T05:49:12.720Z,17.87
2022-12-14T05:51:40.198Z,22.00
2022-12-14T05:54:09.028Z,20.70
2022-12-14T05:56:36.493Z,21.00
2022-12-14T05:59:04.054Z,23.87
2022-12-14T06:01:31.574Z,15.30
2022-12-14T06:04:00.157Z,15.90
2022-12-14T06:06:27.650Z,18.80
2022-12-14T06:08:55.091Z,14.93
2022-12-14T06:11:24.422Z,16.83
2022-12-14T06:13:52.211Z,18.03
2022-12-14T06:16:22.233Z,14.63
2022-12-14T06:18:51.803Z,21.53
2022-12-14T06:21:21.242Z,17.23
2022-12-14T06:23:49.181Z,17.67
2022-12-14T06:26:17.463Z,18.07
2022-12-14T06:28:46.583Z,15.97
2022-12-14T06:31:16.675Z,19.03
2022-12-14T06:33:44.836Z,10.43
2022-12-14T06:36:17.703Z,15.00
2022-12-14T06:38:45.201Z,16.47
2022-12-14T06:41:13.253Z,17.63
2022-12-14T06:43:40.885Z,13.53
2022-12-14T06:46:15.161Z,17.97
2022-12-14T06:48:43.800Z,15.87
2022-12-14T06:51:11.429Z,13.23
2022-12-14T06:53:39.092Z,17.40
2022-12-14T06:56:08.313Z,11.37
2022-12-14T06:58:35.820Z,17.27
2022-12-14T07:01:04.194Z,16.97
2022-12-14T07:03:33.164Z,20.07
2022-12-14T07:06:01.584Z,16.40
2022-12-14T07:08:30.072Z,18.90
2022-12-14T07:11:02.142Z,18.87
2022-12-14T07:13:30.518Z,17.93
2022-12-14T07:15:59.851Z,19.97
2022-12-14T07:18:27.567Z,18.67
2022-12-14T07:20:57.833Z,20.73
2022-12-14T07:23:28.008Z,20.10
2022-12-14T07:26:01.957Z,15.67
2022-12-14T07:28:30.202Z,12.87
2022-12-14T07:30:58.460Z,21.10
2022-12-14T07:33:27.286Z,19.60
2022-12-14T07:36:03.971Z,21.27
2022-12-14T07:38:31.926Z,21.50
2022-12-14T07:41:06.201Z,25.43
2022-12-14T07:43:33.912Z,16.33
2022-12-14T07:46:02.698Z,18.77
2022-12-14T07:48:30.540Z,15.87
2022-12-14T07:51:04.034Z,20.60
2022-12-14T07:53:31.717Z,20.53
2022-12-14T07:56:03.118Z,15.87
2022-12-14T07:58:30.553Z,17.43
2022-12-14T08:01:08.805Z,18.43
2022-12-14T08:03:36.905Z,20.63
2022-12-14T08:06:07.313Z,21.63
2022-12-14T08:08:35.383Z,17.50
2022-12-14T08:11:03.525Z,20.93
2022-12-14T08:13:32.009Z,20.90
2022-12-14T08:16:03.257Z,22.57
2022-12-14T08:18:31.048Z,22.67
2022-12-14T08:20:58.557Z,19.47
2022-12-14T08:23:27.922Z,22.77
2022-12-14T08:25:55.804Z,16.43
2022-12-14T08:28:27.168Z,16.73
2022-12-14T08:30:54.689Z,14.60
2022-12-14T08:33:22.438Z,16.47
2022-12-14T08:35:50.151Z,14.33
2022-12-14T08:38:18.392Z,22.83
2022-12-14T08:40:47.238Z,21.43
2022-12-14T08:43:14.675Z,20.37
2022-12-14T08:45:42.181Z,19.97
2022-12-14T08:48:09.743Z,21.20
2022-12-14T08:50:37.239Z,16.50
2022-12-14T08:53:04.693Z,16.47
2022-12-14T08:55:38.277Z,19.30
2022-12-14T08:58:07.693Z,23.40
2022-12-14T09:00:35.239Z,20.03
2022-12-14T09:03:03.864Z,16.80
2022-12-14T09:05:31.434Z,19.40
2022-12-14T09:07:58.979Z,22.73
2022-12-14T09:10:26.441Z,18.80
2022-12-14T09:12:53.956Z,25.80
2022-12-14T09:15:22.901Z,18.90
2022-12-14T09:17:50.825Z,21.13
2022-12-14T09:20:18.959Z,23.20
2022-12-14T09:22:46.414Z,24.13
2022-12-14T09:25:13.887Z,24.27
2022-12-14T09:27:41.312Z,20.13
2022-12-14T09:30:09.735Z,18.17
2022-12-14T09:32:40.026Z,22.83
2022-12-14T09:35:08.311Z,17.07
2022-12-14T09:37:35.862Z,21.80
2022-12-14T09:40:03.352Z,13.20
2022-12-14T09:42:42.817Z,19.23
2022-12-14T09:45:17.257Z,19.53
2022-12-14T09:47:51.919Z,19.10
2022-12-14T09:50:21.891Z,20.23
2022-12-14T09:52:52.019Z,17.67
2022-12-14T09:55:21.709Z,17.60
2022-12-14T09:57:51.373Z,17.93
2022-12-14T10:00:20.528Z,16.87
2022-12-14T10:03:06.093Z,18.53
2022-12-14T10:05:48.756Z,20.07
2022-12-14T10:08:21.753Z,20.00
2022-12-14T10:10:56.991Z,21.33
2022-12-14T10:13:34.285Z,18.73
2022-12-14T10:16:11.756Z,20.97
2022-12-14T10:19:00.470Z,19.63
2022-12-14T10:21:39.074Z,18.17
2022-12-14T10:24:07.433Z,20.00
2022-12-14T10:26:38.352Z,17.07
2022-12-14T10:29:12.047Z,22.43
2022-12-14T10:31:42.242Z,19.57
2022-12-14T10:34:18.711Z,18.33
2022-12-14T10:36:53.839Z,24.23
2022-12-14T10:39:34.575Z,22.23
2022-12-14T10:42:05.525Z,20.97
2022-12-14T10:44:39.011Z,16.27
2022-12-14T10:47:15.244Z,21.40
2022-12-14T10:49:49.805Z,24.67
2022-12-14T10:52:20.928Z,21.40
2022-12-14T10:54:50.788Z,16.27
2022-12-14T10:57:19.086Z,15.97
2022-12-14T11:00:03.319Z,25.33
2022-12-14T11:02:36.423Z,10.73
2022-12-14T11:05:16.711Z,17.73
2022-12-14T11:07:45.699Z,14.60
2022-12-14T11:10:17.893Z,21.23
2022-12-14T11:12:58.256Z,22.20
2022-12-14T11:15:29.179Z,19.43
2022-12-14T11:18:02.708Z,18.97
2022-12-14T11:20:32.368Z,21.67
2022-12-14T11:23:07.633Z,21.23
2022-12-14T11:25:38.157Z,18.37
2022-12-14T11:28:16.856Z,19.90
2022-12-14T11:30:53.711Z,12.57
2022-12-14T11:33:21.269Z,19.37
2022-12-14T11:35:52.355Z,17.83
2022-12-14T11:38:20.064Z,19.17
2022-12-14T11:40:48.255Z,19.63
2022-12-14T11:43:25.139Z,17.83
2022-12-14T11:45:52.833Z,17.77
2022-12-14T11:48:22.065Z,21.00
2022-12-14T11:50:53.052Z,17.67
2022-12-14T11:53:22.339Z,19.90
2022-12-14T11:55:53.640Z,16.20
2022-12-14T11:58:23.612Z,23.93
2022-12-14T12:00:52.682Z,18.97
2022-12-14T12:03:24.536Z,19.10
2022-12-14T12:05:54.594Z,20.77
2022-12-14T12:08:24.821Z,18.10
2022-12-14T12:10:54.621Z,20.23
2022-12-14T12:13:25.399Z,23.43
2022-12-14T12:15:55.424Z,19.73
2022-12-14T12:18:26.852Z,21.27
2022-12-14T12:21:00.190Z,22.40
2022-12-14T12:23:32.665Z,22.97
2022-12-14T12:26:01.388Z,20.83
2022-12-14T12:28:31.284Z,18.23
2022-12-14T12:31:06.045Z,16.13
2022-12-14T12:33:42.320Z,19.63
2022-12-14T12:36:11.364Z,19.30
2022-12-14T12:38:50.409Z,19.70
2022-12-14T12:41:26.990Z,17.43
2022-12-14T12:43:56.805Z,21.83
2022-12-14T12:46:28.408Z,22.03
2022-12-14T12:49:00.985Z,19.07
2022-12-14T12:51:32.228Z,21.43
2022-12-14T12:54:02.544Z,17.13
2022-12-14T12:56:40.008Z,22.00
2022-12-14T12:59:07.916Z,17.90
2022-12-14T13:01:38.260Z,18.30
2022-12-14T13:04:10.177Z,20.13
2022-12-14T13:06:42.661Z,18.03
2022-12-14T13:09:17.443Z,18.07
2022-12-14T13:11:44.953Z,19.17
2022-12-14T13:14:19.117Z,18.33
2022-12-14T13:16:48.785Z,18.80
2022-12-14T13:22:25.863Z,18.67
2022-12-14T13:24:58.930Z,19.60
2022-12-14T13:27:41.981Z,18.30
2022-12-14T13:30:40.607Z,14.57
2022-12-14T13:33:20.122Z,15.80
2022-12-14T13:36:05.657Z,16.37
2022-12-14T13:38:49.124Z,18.23
2022-12-14T13:41:27.167Z,16.53
2022-12-14T13:44:14.092Z,17.73
2022-12-14T13:46:42.039Z,19.17
2022-12-14T13:49:18.657Z,18.23
2022-12-14T13:51:50.362Z,14.67
2022-12-14T13:54:22.777Z,14.23
2022-12-14T13:56:50.308Z,16.03
2022-12-14T13:59:27.788Z,16.97
2022-12-14T14:01:58.248Z,15.37
2022-12-14T14:04:27.159Z,15.03
2022-12-14T14:06:55.066Z,19.47
2022-12-14T14:09:51.876Z,15.03
2022-12-14T14:12:39.605Z,16.57
2022-12-14T14:15:27.416Z,18.80
2022-12-14T14:17:55.326Z,13.47
2022-12-14T14:20:38.797Z,17.20
2022-12-14T14:23:27.764Z,17.33
2022-12-14T14:26:13.468Z,16.33
2022-12-14T14:28:41.019Z,12.63
2022-12-14T14:31:08.622Z,17.73
2022-12-14T14:33:46.778Z,18.63
2022-12-14T14:36:22.002Z,16.27
2022-12-14T14:38:49.765Z,15.80
2022-12-14T14:41:23.799Z,18.90
2022-12-14T14:43:52.594Z,14.77
2022-12-14T14:46:33.655Z,18.47
2022-12-14T14:49:01.243Z,16.55
2022-12-14T14:51:30.721Z,19.63
2022-12-14T14:57:36.661Z,17.47
2022-12-14T15:00:06.675Z,17.67
2022-12-14T15:02:35.316Z,16.33
2022-12-14T15:05:40.992Z,19.73
2022-12-14T15:07:54.840Z,14.47
2022-12-14T15:10:27.857Z,21.87
2022-12-14T15:13:00.935Z,18.63
2022-12-14T15:15:34.718Z,25.20
2022-12-14T15:18:15.715Z,21.97
2022-12-14T15:20:54.264Z,20.63
2022-12-14T15:23:22.125Z,18.73
2022-12-14T15:25:56.943Z,18.37
2022-12-14T15:28:27.979Z,19.50
2022-12-14T15:30:57.797Z,20.50
2022-12-14T15:33:27.823Z,20.03
2022-12-14T15:36:03.200Z,21.57
2022-12-14T15:38:32.987Z,22.40
2022-12-14T15:41:02.572Z,21.47
2022-12-14T15:43:32.155Z,20.70
2022-12-14T15:46:04.563Z,22.63
2022-12-14T15:48:34.270Z,20.30
2022-12-14T15:51:03.950Z,22.17
2022-12-14T15:53:33.884Z,19.07
2022-12-14T15:56:08.230Z,24.27
2022-12-14T15:58:40.531Z,19.53
2022-12-14T16:01:13.029Z,23.37
2022-12-14T16:03:42.561Z,19.63
2022-12-14T16:06:10.660Z,20.63
2022-12-14T16:08:40.804Z,18.53
2022-12-14T16:11:14.046Z,16.67
2022-12-14T16:13:43.687Z,20.17
2022-12-14T16:16:12.602Z,23.60
2022-12-14T16:18:40.820Z,26.97
2022-12-14T16:21:10.588Z,19.20
2022-12-14T16:23:44.867Z,24.63
2022-12-14T16:26:23.400Z,20.67
2022-12-14T16:29:07.647Z,19.20
2022-12-14T16:31:35.233Z,24.90
2022-12-14T16:34:16.812Z,23.17
2022-12-14T16:36:56.284Z,25.97
2022-12-14T16:39:35.378Z,21.43
2022-12-14T16:42:04.908Z,23.33
2022-12-14T16:44:38.284Z,16.63
2022-12-14T16:47:28.526Z,21.60
2022-12-14T16:49:57.636Z,21.27
2022-12-14T16:52:28.140Z,19.97
2022-12-14T16:55:11.728Z,20.00
2022-12-14T16:57:40.187Z,21.00
2022-12-14T17:00:20.917Z,20.00
2022-12-14T17:02:55.128Z,18.43
2022-12-14T17:05:23.407Z,18.20
2022-12-14T17:07:51.080Z,20.50
2022-12-14T17:10:20.482Z,15.90
2022-12-14T17:12:49.028Z,19.03
2022-12-14T17:15:20.137Z,18.87
2022-12-14T17:17:49.548Z,17.27
2022-12-14T17:20:22.418Z,21.73
2022-12-14T17:22:50.695Z,18.90
2022-12-14T17:25:18.741Z,20.00
2022-12-14T17:27:46.617Z,17.50
2022-12-14T17:30:20.028Z,18.93
2022-12-14T17:32:48.360Z,20.43
2022-12-14T17:35:17.593Z,24.73
2022-12-14T17:37:45.119Z,23.40
2022-12-14T17:40:13.319Z,19.40
2022-12-14T17:42:41.841Z,19.07
2022-12-14T17:45:19.915Z,22.57
2022-12-14T17:47:47.385Z,19.33
2022-12-14T17:50:15.959Z,15.43
2022-12-14T17:52:44.110Z,22.50
2022-12-14T17:55:18.268Z,21.10
2022-12-14T17:57:45.819Z,20.33
2022-12-14T18:00:34.747Z,20.97
2022-12-14T18:03:04.843Z,23.10
2022-12-14T18:05:33.220Z,23.77
2022-12-14T18:08:00.717Z,25.87
2022-12-14T18:10:28.795Z,22.17
2022-12-14T18:12:56.478Z,22.97
2022-12-14T18:15:26.977Z,23.93
2022-12-14T18:17:54.628Z,20.17
2022-12-14T18:20:24.797Z,20.23
2022-12-14T18:22:52.735Z,26.30
2022-12-14T18:25:31.584Z,28.87
2022-12-14T18:28:00.044Z,20.90
2022-12-14T18:30:29.969Z,22.40
2022-12-14T18:33:00.910Z,21.67
2022-12-14T18:35:32.075Z,20.97
2022-12-14T18:37:59.599Z,24.37
2022-12-14T18:40:28.710Z,22.23
2022-12-14T18:42:56.240Z,20.73
2022-12-14T18:45:26.343Z,21.17
2022-12-14T18:47:55.000Z,22.87
2022-12-14T18:50:23.055Z,25.13
2022-12-14T18:52:52.082Z,21.73
2022-12-14T18:55:21.420Z,21.90
2022-12-14T18:57:51.027Z,21.77
2022-12-14T19:00:20.733Z,19.93
2022-12-14T19:02:49.851Z,23.93
2022-12-14T19:05:20.825Z,22.80
2022-12-14T19:07:51.668Z,23.23
2022-12-14T19:10:21.355Z,24.67
2022-12-14T19:12:49.436Z,21.27
2022-12-14T19:15:18.744Z,22.23
2022-12-14T19:17:46.711Z,29.83
2022-12-14T19:20:16.226Z,21.40
2022-12-14T19:22:44.053Z,21.13
2022-12-14T19:25:13.331Z,21.87
2022-12-14T19:30:28.455Z,23.37
2022-12-14T19:32:57.172Z,22.77
2022-12-14T19:35:25.248Z,21.23
2022-12-14T19:37:52.906Z,21.00
2022-12-14T19:40:21.782Z,31.63
2022-12-14T19:42:50.333Z,22.87
2022-12-14T19:45:18.040Z,20.93
2022-12-14T19:47:45.492Z,19.20
2022-12-14T19:50:14.566Z,21.23
2022-12-14T19:52:42.356Z,23.97
2022-12-14T19:55:11.006Z,21.07
2022-12-14T19:57:40.741Z,20.67
2022-12-14T20:00:09.992Z,19.53
2022-12-14T20:02:37.782Z,18.93
2022-12-14T20:05:06.336Z,20.43
2022-12-14T20:07:36.337Z,18.50
2022-12-14T20:10:08.281Z,21.37
2022-12-14T20:12:35.750Z,21.50
2022-12-14T20:15:05.078Z,23.27
2022-12-14T20:17:32.583Z,21.00
2022-12-14T20:20:00.130Z,21.13
2022-12-14T20:22:27.637Z,19.10
2022-12-14T20:24:55.140Z,18.60
2022-12-14T20:27:22.643Z,22.83
2022-12-14T20:29:50.204Z,21.20
2022-12-14T20:32:19.136Z,23.23
2022-12-14T20:34:46.822Z,21.40
2022-12-14T20:37:14.298Z,19.93
2022-12-14T20:39:41.791Z,17.90
2022-12-14T20:42:09.370Z,20.90
2022-12-14T20:44:36.804Z,23.23
2022-12-14T20:47:04.327Z,22.97
2022-12-14T20:49:33.223Z,24.03
2022-12-14T20:52:00.683Z,25.37
2022-12-14T20:54:29.259Z,21.73
2022-12-14T20:56:56.774Z,22.47
2022-12-14T20:59:24.476Z,22.00
2022-12-14T21:01:55.869Z,24.13
2022-12-14T21:04:24.093Z,27.93
2022-12-14T21:06:52.982Z,29.23
2022-12-14T21:09:20.421Z,25.97
2022-12-14T21:12:07.412Z,26.80
2022-12-14T21:14:36.807Z,23.23
2022-12-14T21:17:05.327Z,20.87
2022-12-14T21:19:35.329Z,21.83
2022-12-14T21:22:04.792Z,21.40
2022-12-14T21:27:21.717Z,22.47
2022-12-14T21:29:49.709Z,25.03
2022-12-14T21:32:18.213Z,27.80
2022-12-14T21:34:46.280Z,25.97
2022-12-14T21:37:15.475Z,22.17
2022-12-14T21:39:46.325Z,30.27
2022-12-14T21:42:20.410Z,20.40
2022-12-14T21:44:49.651Z,22.17
2022-12-14T21:47:18.676Z,21.80
2022-12-14T21:49:48.005Z,24.30
2022-12-14T21:52:18.316Z,20.63
2022-12-14T21:54:46.072Z,16.00
2022-12-14T21:57:32.447Z,26.57
2022-12-14T22:00:00.137Z,22.07
2022-12-14T22:02:28.138Z,21.17
2022-12-14T22:04:56.801Z,22.63
2022-12-14T22:07:31.373Z,24.97
2022-12-14T22:09:58.980Z,23.43
2022-12-14T22:12:26.722Z,22.97
2022-12-14T22:14:54.229Z,21.07
2022-12-14T22:17:21.877Z,25.40
2022-12-14T22:19:50.690Z,22.00
2022-12-14T22:22:18.490Z,18.00
2022-12-14T22:24:49.323Z,21.40
2022-12-14T22:27:17.029Z,21.03
2022-12-14T22:29:44.469Z,22.07
2022-12-14T22:32:12.578Z,30.47
2022-12-14T22:34:40.117Z,26.03
2022-12-14T22:37:07.676Z,25.90
2022-12-14T22:39:35.888Z,19.87
2022-12-14T22:42:04.744Z,21.90
2022-12-14T22:44:32.358Z,21.57
2022-12-14T22:46:59.853Z,22.57
2022-12-14T22:49:27.313Z,22.87
2022-12-14T22:51:54.742Z,21.60
2022-12-14T22:54:24.288Z,20.10
2022-12-14T22:56:55.371Z,20.90
2022-12-14T22:59:26.724Z,18.53
2022-12-14T23:01:54.472Z,25.80
2022-12-14T23:04:22.026Z,21.20
2022-12-14T23:06:49.543Z,20.17
2022-12-14T23:09:34.676Z,24.67
2022-12-14T23:12:21.934Z,24.77
2022-12-14T23:15:08.792Z,22.83
2022-12-14T23:17:54.022Z,24.30
2022-12-14T23:20:39.134Z,25.80
2022-12-14T23:23:24.516Z,24.33
2022-12-14T23:26:09.417Z,24.43
2022-12-14T23:28:54.640Z,23.63
2022-12-14T23:31:41.002Z,20.77
2022-12-14T23:34:25.965Z,19.77
2022-12-14T23:37:13.829Z,21.77
2022-12-14T23:40:03.227Z,27.73
2022-12-14T23:42:47.949Z,23.83
2022-12-14T23:45:33.420Z,22.00
2022-12-14T23:48:19.651Z,19.33
2022-12-14T23:51:04.567Z,22.07
2022-12-14T23:53:49.973Z,17.53
2022-12-14T23:56:35.320Z,21.07
2022-12-14T23:59:22.690Z,22.07
